sensor_id;sensor_type;location;lat;lon;timestamp;temperature;humidity
67862;DHT22;54665;51.462;6.698;2023-02-26T00:01:23;1.27;78.04
67862;DHT22;54665;51.462;6.698;2023-02-26T00:03:50;1.31;78.21
67862;DHT22;54665;51.462;6.698;2023-02-26T00:06:16;1.34;78.07
67862;DHT22;54665;51.462;6.698;2023-02-26T00:08:42;1.42;77.84
67862;DHT22;54665;51.462;6.698;2023-02-26T00:11:08;1.42;77.65
67862;DHT22;54665;51.462;6.698;2023-02-26T00:13:39;1.45;77.63
67862;DHT22;54665;51.462;6.698;2023-02-26T00:16:12;1.55;77.35
67862;DHT22;54665;51.462;6.698;2023-02-26T00:18:43;1.62;76.98
67862;DHT22;54665;51.462;6.698;2023-02-26T00:21:15;1.76;76.02
67862;DHT22;54665;51.462;6.698;2023-02-26T00:23:40;1.72;75.73
67862;DHT22;54665;51.462;6.698;2023-02-26T00:26:06;1.99;74.65
67862;DHT22;54665;51.462;6.698;2023-02-26T00:28:31;2.06;73.78
67862;DHT22;54665;51.462;6.698;2023-02-26T00:30:57;2.23;73.01
67862;DHT22;54665;51.462;6.698;2023-02-26T00:33:23;2.11;73.20
67862;DHT22;54665;51.462;6.698;2023-02-26T00:35:50;2.20;72.31
67862;DHT22;54665;51.462;6.698;2023-02-26T00:38:18;2.06;73.35
67862;DHT22;54665;51.462;6.698;2023-02-26T00:40:48;2.09;73.45
67862;DHT22;54665;51.462;6.698;2023-02-26T00:43:15;2.16;72.73
67862;DHT22;54665;51.462;6.698;2023-02-26T00:45:50;2.26;72.26
67862;DHT22;54665;51.462;6.698;2023-02-26T00:48:29;2.36;71.92
67862;DHT22;54665;51.462;6.698;2023-02-26T00:51:19;2.14;72.79
67862;DHT22;54665;51.462;6.698;2023-02-26T00:56:30;1.78;74.78
67862;DHT22;54665;51.462;6.698;2023-02-26T00:58:55;1.66;75.04
67862;DHT22;54665;51.462;6.698;2023-02-26T01:01:22;1.78;75.28
67862;DHT22;54665;51.462;6.698;2023-02-26T01:03:47;1.66;75.47
67862;DHT22;54665;51.462;6.698;2023-02-26T01:06:16;1.75;74.92
67862;DHT22;54665;51.462;6.698;2023-02-26T01:11:35;1.72;75.18
67862;DHT22;54665;51.462;6.698;2023-02-26T01:14:02;1.68;75.28
67862;DHT22;54665;51.462;6.698;2023-02-26T01:16:33;1.51;75.52
67862;DHT22;54665;51.462;6.698;2023-02-26T01:19:14;1.49;75.26
67862;DHT22;54665;51.462;6.698;2023-02-26T01:21:48;1.51;75.59
67862;DHT22;54665;51.462;6.698;2023-02-26T01:24:17;1.47;76.06
67862;DHT22;54665;51.462;6.698;2023-02-26T01:26:43;1.38;76.54
67862;DHT22;54665;51.462;6.698;2023-02-26T01:29:09;1.28;77.12
67862;DHT22;54665;51.462;6.698;2023-02-26T01:31:49;1.28;77.48
67862;DHT22;54665;51.462;6.698;2023-02-26T01:34:36;1.21;77.76
67862;DHT22;54665;51.462;6.698;2023-02-26T01:40:02;1.16;78.23
67862;DHT22;54665;51.462;6.698;2023-02-26T01:42:35;1.03;78.73
67862;DHT22;54665;51.462;6.698;2023-02-26T01:45:05;1.08;78.42
67862;DHT22;54665;51.462;6.698;2023-02-26T01:47:42;1.07;78.42
67862;DHT22;54665;51.462;6.698;2023-02-26T01:50:20;1.07;78.34
67862;DHT22;54665;51.462;6.698;2023-02-26T01:55:13;1.18;77.78
67862;DHT22;54665;51.462;6.698;2023-02-26T01:57:38;1.21;77.58
67862;DHT22;54665;51.462;6.698;2023-02-26T02:00:05;1.16;77.78
67862;DHT22;54665;51.462;6.698;2023-02-26T02:02:37;1.23;76.59
67862;DHT22;54665;51.462;6.698;2023-02-26T02:05:21;1.20;76.67
67862;DHT22;54665;51.462;6.698;2023-02-26T02:07:48;1.42;76.03
67862;DHT22;54665;51.462;6.698;2023-02-26T02:10:14;1.20;75.60
67862;DHT22;54665;51.462;6.698;2023-02-26T02:12:59;1.17;76.42
67862;DHT22;54665;51.462;6.698;2023-02-26T02:15:35;1.28;76.30
67862;DHT22;54665;51.462;6.698;2023-02-26T02:24:03;1.14;76.45
67862;DHT22;54665;51.462;6.698;2023-02-26T02:26:52;1.09;75.91
67862;DHT22;54665;51.462;6.698;2023-02-26T02:32:18;1.13;76.06
67862;DHT22;54665;51.462;6.698;2023-02-26T02:34:51;1.28;75.41
67862;DHT22;54665;51.462;6.698;2023-02-26T02:37:44;1.00;75.86
67862;DHT22;54665;51.462;6.698;2023-02-26T02:40:21;1.00;75.79
67862;DHT22;54665;51.462;6.698;2023-02-26T02:43:01;0.88;76.09
67862;DHT22;54665;51.462;6.698;2023-02-26T02:45:34;0.96;75.86
67862;DHT22;54665;51.462;6.698;2023-02-26T02:48:05;0.76;76.88
67862;DHT22;54665;51.462;6.698;2023-02-26T02:50:37;0.70;77.13
67862;DHT22;54665;51.462;6.698;2023-02-26T02:53:17;0.75;77.68
67862;DHT22;54665;51.462;6.698;2023-02-26T02:55:52;0.65;77.86
67862;DHT22;54665;51.462;6.698;2023-02-26T02:58:22;0.60;78.49
67862;DHT22;54665;51.462;6.698;2023-02-26T03:00:51;0.57;78.79
67862;DHT22;54665;51.462;6.698;2023-02-26T03:03:32;0.52;78.88
67862;DHT22;54665;51.462;6.698;2023-02-26T03:05:59;0.39;79.42
67862;DHT22;54665;51.462;6.698;2023-02-26T03:08:32;0.46;79.56
67862;DHT22;54665;51.462;6.698;2023-02-26T03:10:58;0.43;79.54
67862;DHT22;54665;51.462;6.698;2023-02-26T03:13:25;0.42;79.77
67862;DHT22;54665;51.462;6.698;2023-02-26T03:16:28;0.41;79.99
67862;DHT22;54665;51.462;6.698;2023-02-26T03:19:17;0.38;79.96
67862;DHT22;54665;51.462;6.698;2023-02-26T03:21:49;0.36;80.17
67862;DHT22;54665;51.462;6.698;2023-02-26T03:27:38;0.38;80.03
67862;DHT22;54665;51.462;6.698;2023-02-26T03:30:33;0.29;80.56
67862;DHT22;54665;51.462;6.698;2023-02-26T03:33:12;0.33;80.53
67862;DHT22;54665;51.462;6.698;2023-02-26T03:38:45;0.21;81.23
67862;DHT22;54665;51.462;6.698;2023-02-26T03:41:16;0.28;80.79
67862;DHT22;54665;51.462;6.698;2023-02-26T03:43:50;0.12;80.99
67862;DHT22;54665;51.462;6.698;2023-02-26T03:46:24;0.22;80.67
67862;DHT22;54665;51.462;6.698;2023-02-26T03:48:51;0.24;80.45
67862;DHT22;54665;51.462;6.698;2023-02-26T03:51:21;0.24;79.98
67862;DHT22;54665;51.462;6.698;2023-02-26T03:54:37;0.30;79.62
67862;DHT22;54665;51.462;6.698;2023-02-26T03:57:23;0.28;79.27
67862;DHT22;54665;51.462;6.698;2023-02-26T04:00:08;0.30;78.99
67862;DHT22;54665;51.462;6.698;2023-02-26T04:05:25;0.36;78.32
67862;DHT22;54665;51.462;6.698;2023-02-26T04:07:52;0.36;77.80
67862;DHT22;54665;51.462;6.698;2023-02-26T04:10:20;0.32;77.45
67862;DHT22;54665;51.462;6.698;2023-02-26T04:12:49;0.46;76.92
67862;DHT22;54665;51.462;6.698;2023-02-26T04:15:14;0.28;77.35
67862;DHT22;54665;51.462;6.698;2023-02-26T04:17:41;0.39;77.29
67862;DHT22;54665;51.462;6.698;2023-02-26T04:20:07;0.21;77.62
67862;DHT22;54665;51.462;6.698;2023-02-26T04:22:35;0.25;77.85
67862;DHT22;54665;51.462;6.698;2023-02-26T04:25:00;0.22;77.49
67862;DHT22;54665;51.462;6.698;2023-02-26T04:27:26;0.22;77.96
67862;DHT22;54665;51.462;6.698;2023-02-26T04:29:51;0.15;77.62
67862;DHT22;54665;51.462;6.698;2023-02-26T04:32:17;0.18;77.25
67862;DHT22;54665;51.462;6.698;2023-02-26T04:34:42;0.11;77.61
67862;DHT22;54665;51.462;6.698;2023-02-26T04:37:08;0.15;77.03
67862;DHT22;54665;51.462;6.698;2023-02-26T04:39:35;0.05;77.42
67862;DHT22;54665;51.462;6.698;2023-02-26T04:42:01;0.16;77.27
67862;DHT22;54665;51.462;6.698;2023-02-26T04:44:29;0.01;77.36
67862;DHT22;54665;51.462;6.698;2023-02-26T04:46:55;0.05;77.37
67862;DHT22;54665;51.462;6.698;2023-02-26T04:49:22;0.06;77.08
67862;DHT22;54665;51.462;6.698;2023-02-26T04:51:47;0.18;76.32
67862;DHT22;54665;51.462;6.698;2023-02-26T04:54:14;0.24;75.76
67862;DHT22;54665;51.462;6.698;2023-02-26T04:56:40;0.33;75.19
67862;DHT22;54665;51.462;6.698;2023-02-26T04:59:06;0.26;75.92
67862;DHT22;54665;51.462;6.698;2023-02-26T05:01:33;0.28;75.65
67862;DHT22;54665;51.462;6.698;2023-02-26T05:03:58;0.26;75.43
67862;DHT22;54665;51.462;6.698;2023-02-26T05:06:24;0.24;75.57
67862;DHT22;54665;51.462;6.698;2023-02-26T05:08:50;0.18;75.65
67862;DHT22;54665;51.462;6.698;2023-02-26T05:11:17;0.30;75.19
67862;DHT22;54665;51.462;6.698;2023-02-26T05:13:42;0.26;75.62
67862;DHT22;54665;51.462;6.698;2023-02-26T05:16:07;0.21;75.87
67862;DHT22;54665;51.462;6.698;2023-02-26T05:18:34;0.26;75.52
67862;DHT22;54665;51.462;6.698;2023-02-26T05:21:00;0.28;75.14
67862;DHT22;54665;51.462;6.698;2023-02-26T05:23:26;0.30;75.22
67862;DHT22;54665;51.462;6.698;2023-02-26T05:25:54;0.22;75.44
67862;DHT22;54665;51.462;6.698;2023-02-26T05:28:20;0.16;75.49
67862;DHT22;54665;51.462;6.698;2023-02-26T05:30:45;-0.10;76.56
67862;DHT22;54665;51.462;6.698;2023-02-26T05:33:11;-0.19;77.09
67862;DHT22;54665;51.462;6.698;2023-02-26T05:35:36;-0.06;76.57
67862;DHT22;54665;51.462;6.698;2023-02-26T05:38:01;0.01;76.03
67862;DHT22;54665;51.462;6.698;2023-02-26T05:40:27;0.21;75.42
67862;DHT22;54665;51.462;6.698;2023-02-26T05:42:52;0.09;75.36
67862;DHT22;54665;51.462;6.698;2023-02-26T05:45:18;0.18;75.19
67862;DHT22;54665;51.462;6.698;2023-02-26T05:47:43;0.06;75.64
67862;DHT22;54665;51.462;6.698;2023-02-26T05:50:09;0.02;75.78
67862;DHT22;54665;51.462;6.698;2023-02-26T05:52:35;0.01;75.68
67862;DHT22;54665;51.462;6.698;2023-02-26T05:55:00;-0.05;75.23
67862;DHT22;54665;51.462;6.698;2023-02-26T05:57:26;0.04;75.21
67862;DHT22;54665;51.462;6.698;2023-02-26T05:59:51;-0.05;75.03
67862;DHT22;54665;51.462;6.698;2023-02-26T06:02:17;-0.17;75.15
67862;DHT22;54665;51.462;6.698;2023-02-26T06:04:42;-0.05;75.24
67862;DHT22;54665;51.462;6.698;2023-02-26T06:07:08;-0.13;75.78
67862;DHT22;54665;51.462;6.698;2023-02-26T06:09:33;-0.37;76.95
67862;DHT22;54665;51.462;6.698;2023-02-26T06:11:59;-0.19;75.92
67862;DHT22;54665;51.462;6.698;2023-02-26T06:14:24;-0.23;76.00
67862;DHT22;54665;51.462;6.698;2023-02-26T06:16:49;-0.27;76.44
67862;DHT22;54665;51.462;6.698;2023-02-26T06:19:15;-0.25;76.18
67862;DHT22;54665;51.462;6.698;2023-02-26T06:21:40;-0.33;76.53
67862;DHT22;54665;51.462;6.698;2023-02-26T06:24:06;-0.27;76.39
67862;DHT22;54665;51.462;6.698;2023-02-26T06:26:31;-0.16;76.17
67862;DHT22;54665;51.462;6.698;2023-02-26T06:28:57;-0.20;76.07
67862;DHT22;54665;51.462;6.698;2023-02-26T06:31:22;-0.25;76.53
67862;DHT22;54665;51.462;6.698;2023-02-26T06:33:48;-0.22;76.07
67862;DHT22;54665;51.462;6.698;2023-02-26T06:36:13;-0.23;76.20
67862;DHT22;54665;51.462;6.698;2023-02-26T06:38:39;-0.25;75.77
67862;DHT22;54665;51.462;6.698;2023-02-26T06:41:04;-0.10;75.56
67862;DHT22;54665;51.462;6.698;2023-02-26T06:43:30;-0.25;76.09
67862;DHT22;54665;51.462;6.698;2023-02-26T06:45:59;-0.34;76.73
67862;DHT22;54665;51.462;6.698;2023-02-26T06:48:25;-0.36;76.61
67862;DHT22;54665;51.462;6.698;2023-02-26T06:50:50;-0.32;76.22
67862;DHT22;54665;51.462;6.698;2023-02-26T06:53:16;-0.07;75.69
67862;DHT22;54665;51.462;6.698;2023-02-26T06:55:45;-0.07;75.23
67862;DHT22;54665;51.462;6.698;2023-02-26T06:58:11;-0.01;75.17
67862;DHT22;54665;51.462;6.698;2023-02-26T07:00:38;0.05;74.94
67862;DHT22;54665;51.462;6.698;2023-02-26T07:03:05;0.12;75.30
67862;DHT22;54665;51.462;6.698;2023-02-26T07:05:31;0.05;75.17
67862;DHT22;54665;51.462;6.698;2023-02-26T07:07:56;0.09;74.25
67862;DHT22;54665;51.462;6.698;2023-02-26T07:10:22;0.29;73.09
67862;DHT22;54665;51.462;6.698;2023-02-26T07:12:49;0.41;73.28
67862;DHT22;54665;51.462;6.698;2023-02-26T07:15:14;0.42;72.63
67862;DHT22;54665;51.462;6.698;2023-02-26T07:17:40;0.46;72.75
67862;DHT22;54665;51.462;6.698;2023-02-26T07:20:06;0.50;72.17
67862;DHT22;54665;51.462;6.698;2023-02-26T07:22:35;0.55;72.02
67862;DHT22;54665;51.462;6.698;2023-02-26T07:25:01;0.69;72.18
67862;DHT22;54665;51.462;6.698;2023-02-26T07:27:26;0.70;72.38
67862;DHT22;54665;51.462;6.698;2023-02-26T07:29:54;0.63;72.49
67862;DHT22;54665;51.462;6.698;2023-02-26T07:32:19;0.88;71.60
67862;DHT22;54665;51.462;6.698;2023-02-26T07:34:45;0.67;71.74
67862;DHT22;54665;51.462;6.698;2023-02-26T07:37:10;0.90;71.42
67862;DHT22;54665;51.462;6.698;2023-02-26T07:39:35;0.81;71.76
67862;DHT22;54665;51.462;6.698;2023-02-26T07:42:01;0.79;71.83
67862;DHT22;54665;51.462;6.698;2023-02-26T07:44:27;0.91;71.71
67862;DHT22;54665;51.462;6.698;2023-02-26T07:46:52;0.69;71.71
67862;DHT22;54665;51.462;6.698;2023-02-26T07:49:18;0.93;70.84
67862;DHT22;54665;51.462;6.698;2023-02-26T07:51:43;1.07;70.36
67862;DHT22;54665;51.462;6.698;2023-02-26T07:54:11;1.05;70.79
67862;DHT22;54665;51.462;6.698;2023-02-26T07:56:37;1.21;70.99
67862;DHT22;54665;51.462;6.698;2023-02-26T07:59:04;0.94;70.81
67862;DHT22;54665;51.462;6.698;2023-02-26T08:01:29;1.16;70.53
67862;DHT22;54665;51.462;6.698;2023-02-26T08:03:54;1.20;70.36
67862;DHT22;54665;51.462;6.698;2023-02-26T08:06:20;1.73;69.12
67862;DHT22;54665;51.462;6.698;2023-02-26T08:08:45;3.15;64.97
67862;DHT22;54665;51.462;6.698;2023-02-26T08:11:11;2.75;64.39
67862;DHT22;54665;51.462;6.698;2023-02-26T08:13:37;2.95;64.25
67862;DHT22;54665;51.462;6.698;2023-02-26T08:16:02;3.30;62.85
67862;DHT22;54665;51.462;6.698;2023-02-26T08:18:28;3.59;62.34
67862;DHT22;54665;51.462;6.698;2023-02-26T08:20:53;3.64;62.98
67862;DHT22;54665;51.462;6.698;2023-02-26T08:23:19;3.44;62.26
67862;DHT22;54665;51.462;6.698;2023-02-26T08:25:44;3.19;62.67
67862;DHT22;54665;51.462;6.698;2023-02-26T08:28:10;3.57;62.16
67862;DHT22;54665;51.462;6.698;2023-02-26T08:30:35;4.08;60.20
67862;DHT22;54665;51.462;6.698;2023-02-26T08:33:01;4.53;59.80
67862;DHT22;54665;51.462;6.698;2023-02-26T08:35:27;4.59;59.48
67862;DHT22;54665;51.462;6.698;2023-02-26T08:37:52;4.98;58.42
67862;DHT22;54665;51.462;6.698;2023-02-26T08:40:19;4.55;58.34
67862;DHT22;54665;51.462;6.698;2023-02-26T08:42:44;4.50;58.38
67862;DHT22;54665;51.462;6.698;2023-02-26T08:45:10;3.70;60.55
67862;DHT22;54665;51.462;6.698;2023-02-26T08:47:35;3.84;60.58
67862;DHT22;54665;51.462;6.698;2023-02-26T08:50:03;3.39;62.20
67862;DHT22;54665;51.462;6.698;2023-02-26T08:52:29;3.29;61.11
67862;DHT22;54665;51.462;6.698;2023-02-26T08:54:54;3.23;62.10
67862;DHT22;54665;51.462;6.698;2023-02-26T08:57:19;3.33;61.93
67862;DHT22;54665;51.462;6.698;2023-02-26T08:59:45;3.98;60.28
67862;DHT22;54665;51.462;6.698;2023-02-26T09:02:11;3.87;59.55
67862;DHT22;54665;51.462;6.698;2023-02-26T09:04:36;4.02;59.89
67862;DHT22;54665;51.462;6.698;2023-02-26T09:07:02;3.88;59.93
67862;DHT22;54665;51.462;6.698;2023-02-26T09:09:27;3.33;60.47
67862;DHT22;54665;51.462;6.698;2023-02-26T09:11:52;3.84;59.14
67862;DHT22;54665;51.462;6.698;2023-02-26T09:14:18;4.35;58.78
67862;DHT22;54665;51.462;6.698;2023-02-26T09:16:43;5.04;57.95
67862;DHT22;54665;51.462;6.698;2023-02-26T09:19:09;4.94;57.18
67862;DHT22;54665;51.462;6.698;2023-02-26T09:21:34;5.45;55.67
67862;DHT22;54665;51.462;6.698;2023-02-26T09:24:00;5.59;53.50
67862;DHT22;54665;51.462;6.698;2023-02-26T09:26:25;5.69;52.73
67862;DHT22;54665;51.462;6.698;2023-02-26T09:28:51;5.60;51.95
67862;DHT22;54665;51.462;6.698;2023-02-26T09:31:17;5.54;52.78
67862;DHT22;54665;51.462;6.698;2023-02-26T09:33:42;5.69;53.28
67862;DHT22;54665;51.462;6.698;2023-02-26T09:36:08;6.02;52.70
67862;DHT22;54665;51.462;6.698;2023-02-26T09:38:33;6.33;51.95
67862;DHT22;54665;51.462;6.698;2023-02-26T09:41:08;6.57;50.65
67862;DHT22;54665;51.462;6.698;2023-02-26T09:46:59;4.79;54.52
67862;DHT22;54665;51.462;6.698;2023-02-26T09:52:05;5.90;54.15
67862;DHT22;54665;51.462;6.698;2023-02-26T09:54:41;5.08;53.71
67862;DHT22;54665;51.462;6.698;2023-02-26T09:57:11;5.47;53.57
67862;DHT22;54665;51.462;6.698;2023-02-26T09:59:38;5.72;52.47
67862;DHT22;54665;51.462;6.698;2023-02-26T10:02:15;6.27;52.63
67862;DHT22;54665;51.462;6.698;2023-02-26T10:08:03;5.38;53.77
67862;DHT22;54665;51.462;6.698;2023-02-26T10:10:53;4.86;54.05
67862;DHT22;54665;51.462;6.698;2023-02-26T10:13:49;4.93;56.03
67862;DHT22;54665;51.462;6.698;2023-02-26T10:16:21;5.60;52.78
67862;DHT22;54665;51.462;6.698;2023-02-26T10:18:59;4.57;54.32
67862;DHT22;54665;51.462;6.698;2023-02-26T10:21:46;4.81;54.26
67862;DHT22;54665;51.462;6.698;2023-02-26T10:24:30;4.87;52.32
67862;DHT22;54665;51.462;6.698;2023-02-26T10:27:05;5.28;52.33
67862;DHT22;54665;51.462;6.698;2023-02-26T10:30:00;5.17;51.80
67862;DHT22;54665;51.462;6.698;2023-02-26T10:32:53;5.41;52.27
67862;DHT22;54665;51.462;6.698;2023-02-26T10:35:21;5.18;52.61
67862;DHT22;54665;51.462;6.698;2023-02-26T10:37:55;4.84;51.92
67862;DHT22;54665;51.462;6.698;2023-02-26T10:40:34;5.23;51.28
67862;DHT22;54665;51.462;6.698;2023-02-26T10:43:12;5.31;53.29
67862;DHT22;54665;51.462;6.698;2023-02-26T10:48:48;5.27;50.59
67862;DHT22;54665;51.462;6.698;2023-02-26T10:51:24;5.34;50.46
67862;DHT22;54665;51.462;6.698;2023-02-26T10:53:57;5.34;50.42
67862;DHT22;54665;51.462;6.698;2023-02-26T10:56:26;5.47;49.87
67862;DHT22;54665;51.462;6.698;2023-02-26T10:58:54;5.03;50.68
67862;DHT22;54665;51.462;6.698;2023-02-26T11:01:22;4.09;52.00
67862;DHT22;54665;51.462;6.698;2023-02-26T11:03:58;4.06;52.00
67862;DHT22;54665;51.462;6.698;2023-02-26T11:06:29;3.90;53.14
67862;DHT22;54665;51.462;6.698;2023-02-26T11:08:57;4.06;53.00
67862;DHT22;54665;51.462;6.698;2023-02-26T11:11:54;4.70;52.26
67862;DHT22;54665;51.462;6.698;2023-02-26T11:14:21;4.84;52.08
67862;DHT22;54665;51.462;6.698;2023-02-26T11:16:53;4.63;52.28
67862;DHT22;54665;51.462;6.698;2023-02-26T11:19:28;4.43;52.65
67862;DHT22;54665;51.462;6.698;2023-02-26T11:21:54;4.19;53.05
67862;DHT22;54665;51.462;6.698;2023-02-26T11:26:56;5.15;50.54
67862;DHT22;54665;51.462;6.698;2023-02-26T11:29:24;4.87;51.38
67862;DHT22;54665;51.462;6.698;2023-02-26T11:31:54;4.66;51.01
67862;DHT22;54665;51.462;6.698;2023-02-26T11:34:23;4.67;50.93
67862;DHT22;54665;51.462;6.698;2023-02-26T11:36:49;4.96;51.02
67862;DHT22;54665;51.462;6.698;2023-02-26T11:39:18;5.24;49.73
67862;DHT22;54665;51.462;6.698;2023-02-26T11:41:47;5.08;48.72
67862;DHT22;54665;51.462;6.698;2023-02-26T11:44:26;5.30;48.89
67862;DHT22;54665;51.462;6.698;2023-02-26T11:46:57;4.98;49.70
67862;DHT22;54665;51.462;6.698;2023-02-26T11:49:26;4.73;50.11
67862;DHT22;54665;51.462;6.698;2023-02-26T11:52:13;4.70;49.47
67862;DHT22;54665;51.462;6.698;2023-02-26T11:54:43;4.72;50.46
67862;DHT22;54665;51.462;6.698;2023-02-26T11:57:17;4.14;50.12
67862;DHT22;54665;51.462;6.698;2023-02-26T11:59:47;4.01;50.62
67862;DHT22;54665;51.462;6.698;2023-02-26T12:02:14;4.49;49.01
67862;DHT22;54665;51.462;6.698;2023-02-26T12:04:44;5.59;49.63
67862;DHT22;54665;51.462;6.698;2023-02-26T12:07:13;6.11;48.08
67862;DHT22;54665;51.462;6.698;2023-02-26T12:09:38;5.86;46.72
67862;DHT22;54665;51.462;6.698;2023-02-26T12:12:19;5.49;46.67
67862;DHT22;54665;51.462;6.698;2023-02-26T12:18:20;4.49;47.70
67862;DHT22;54665;51.462;6.698;2023-02-26T12:21:19;4.32;48.25
67862;DHT22;54665;51.462;6.698;2023-02-26T12:34:51;4.67;47.20
67862;DHT22;54665;51.462;6.698;2023-02-26T12:37:49;5.34;46.30
67862;DHT22;54665;51.462;6.698;2023-02-26T12:43:33;6.21;44.00
67862;DHT22;54665;51.462;6.698;2023-02-26T12:57:42;6.17;45.49
67862;DHT22;54665;51.462;6.698;2023-02-26T13:05:44;6.72;40.82
67862;DHT22;54665;51.462;6.698;2023-02-26T13:14:01;6.75;41.29
67862;DHT22;54665;51.462;6.698;2023-02-26T13:21:59;6.82;42.14
67862;DHT22;54665;51.462;6.698;2023-02-26T13:24:43;6.75;41.62
67862;DHT22;54665;51.462;6.698;2023-02-26T13:27:11;7.02;42.72
67862;DHT22;54665;51.462;6.698;2023-02-26T13:29:46;6.81;42.30
67862;DHT22;54665;51.462;6.698;2023-02-26T13:32:18;7.03;42.28
67862;DHT22;54665;51.462;6.698;2023-02-26T13:34:54;6.88;41.76
67862;DHT22;54665;51.462;6.698;2023-02-26T13:37:40;6.78;40.79
67862;DHT22;54665;51.462;6.698;2023-02-26T13:45:47;6.79;41.08
67862;DHT22;54665;51.462;6.698;2023-02-26T13:48:55;7.29;42.87
67862;DHT22;54665;51.462;6.698;2023-02-26T13:51:36;7.34;41.12
67862;DHT22;54665;51.462;6.698;2023-02-26T13:59:02;7.26;42.19
67862;DHT22;54665;51.462;6.698;2023-02-26T14:01:34;7.39;40.43
67862;DHT22;54665;51.462;6.698;2023-02-26T14:06:45;6.54;42.18
67862;DHT22;54665;51.462;6.698;2023-02-26T14:11:57;6.63;42.40
67862;DHT22;54665;51.462;6.698;2023-02-26T14:14:32;6.51;41.47
67862;DHT22;54665;51.462;6.698;2023-02-26T14:19:40;6.60;42.68
67862;DHT22;54665;51.462;6.698;2023-02-26T14:22:37;6.47;42.65
67862;DHT22;54665;51.462;6.698;2023-02-26T14:27:41;6.52;42.43
67862;DHT22;54665;51.462;6.698;2023-02-26T14:35:44;5.76;43.76
67862;DHT22;54665;51.462;6.698;2023-02-26T14:38:22;5.45;45.01
67862;DHT22;54665;51.462;6.698;2023-02-26T14:40:54;5.65;44.35
67862;DHT22;54665;51.462;6.698;2023-02-26T14:43:36;5.69;44.57
67862;DHT22;54665;51.462;6.698;2023-02-26T14:46:03;5.79;45.09
67862;DHT22;54665;51.462;6.698;2023-02-26T14:48:30;5.85;44.25
67862;DHT22;54665;51.462;6.698;2023-02-26T14:54:27;5.95;45.49
67862;DHT22;54665;51.462;6.698;2023-02-26T14:57:05;5.89;44.05
67862;DHT22;54665;51.462;6.698;2023-02-26T15:00:03;5.88;46.18
67862;DHT22;54665;51.462;6.698;2023-02-26T15:02:57;5.93;44.42
67862;DHT22;54665;51.462;6.698;2023-02-26T15:05:39;5.80;44.18
67862;DHT22;54665;51.462;6.698;2023-02-26T15:16:41;5.99;46.78
67862;DHT22;54665;51.462;6.698;2023-02-26T15:24:48;6.00;45.83
67862;DHT22;54665;51.462;6.698;2023-02-26T15:27:17;5.97;45.44
67862;DHT22;54665;51.462;6.698;2023-02-26T15:29:43;6.02;44.75
67862;DHT22;54665;51.462;6.698;2023-02-26T15:32:24;5.97;45.13
67862;DHT22;54665;51.462;6.698;2023-02-26T15:35:16;5.96;46.11
67862;DHT22;54665;51.462;6.698;2023-02-26T15:37:42;5.76;45.08
67862;DHT22;54665;51.462;6.698;2023-02-26T15:40:13;5.70;45.49
67862;DHT22;54665;51.462;6.698;2023-02-26T15:42:40;5.63;45.07
67862;DHT22;54665;51.462;6.698;2023-02-26T15:45:19;5.72;45.93
67862;DHT22;54665;51.462;6.698;2023-02-26T15:47:50;5.73;45.06
67862;DHT22;54665;51.462;6.698;2023-02-26T15:50:17;5.68;46.22
67862;DHT22;54665;51.462;6.698;2023-02-26T15:52:42;5.45;45.72
67862;DHT22;54665;51.462;6.698;2023-02-26T15:55:14;5.37;45.97
67862;DHT22;54665;51.462;6.698;2023-02-26T15:57:40;5.21;46.70
67862;DHT22;54665;51.462;6.698;2023-02-26T16:00:09;5.14;46.08
67862;DHT22;54665;51.462;6.698;2023-02-26T16:02:41;5.08;45.82
67862;DHT22;54665;51.462;6.698;2023-02-26T16:05:09;5.08;46.95
67862;DHT22;54665;51.462;6.698;2023-02-26T16:07:35;4.98;46.02
67862;DHT22;54665;51.462;6.698;2023-02-26T16:10:07;5.08;46.56
67862;DHT22;54665;51.462;6.698;2023-02-26T16:12:41;5.11;47.06
67862;DHT22;54665;51.462;6.698;2023-02-26T16:15:14;5.18;47.37
67862;DHT22;54665;51.462;6.698;2023-02-26T16:17:42;5.10;47.46
67862;DHT22;54665;51.462;6.698;2023-02-26T16:20:20;4.88;47.62
67862;DHT22;54665;51.462;6.698;2023-02-26T16:22:54;4.94;47.59
67862;DHT22;54665;51.462;6.698;2023-02-26T16:25:29;4.86;48.55
67862;DHT22;54665;51.462;6.698;2023-02-26T16:28:21;4.86;49.12
67862;DHT22;54665;51.462;6.698;2023-02-26T16:30:51;4.76;48.60
67862;DHT22;54665;51.462;6.698;2023-02-26T16:33:21;4.88;47.85
67862;DHT22;54665;51.462;6.698;2023-02-26T16:35:49;4.94;47.99
67862;DHT22;54665;51.462;6.698;2023-02-26T16:38:20;4.74;47.46
67862;DHT22;54665;51.462;6.698;2023-02-26T16:40:55;4.84;47.86
67862;DHT22;54665;51.462;6.698;2023-02-26T16:43:34;5.01;47.53
67862;DHT22;54665;51.462;6.698;2023-02-26T16:46:03;4.63;48.10
67862;DHT22;54665;51.462;6.698;2023-02-26T16:48:34;4.66;48.10
67862;DHT22;54665;51.462;6.698;2023-02-26T16:51:08;4.63;48.13
67862;DHT22;54665;51.462;6.698;2023-02-26T16:53:40;4.60;49.39
67862;DHT22;54665;51.462;6.698;2023-02-26T16:56:12;4.36;49.75
67862;DHT22;54665;51.462;6.698;2023-02-26T16:59:01;4.26;49.27
67862;DHT22;54665;51.462;6.698;2023-02-26T17:01:27;4.39;48.27
67862;DHT22;54665;51.462;6.698;2023-02-26T17:03:59;4.38;47.85
67862;DHT22;54665;51.462;6.698;2023-02-26T17:06:26;4.39;48.34
67862;DHT22;54665;51.462;6.698;2023-02-26T17:08:59;4.42;48.22
67862;DHT22;54665;51.462;6.698;2023-02-26T17:11:38;4.29;48.86
67862;DHT22;54665;51.462;6.698;2023-02-26T17:14:23;4.33;48.86
67862;DHT22;54665;51.462;6.698;2023-02-26T17:16:50;4.12;50.06
67862;DHT22;54665;51.462;6.698;2023-02-26T17:19:16;4.15;49.60
67862;DHT22;54665;51.462;6.698;2023-02-26T17:21:45;3.98;50.19
67862;DHT22;54665;51.462;6.698;2023-02-26T17:24:22;4.11;50.01
67862;DHT22;54665;51.462;6.698;2023-02-26T17:26:48;3.93;50.54
67862;DHT22;54665;51.462;6.698;2023-02-26T17:29:18;3.90;51.22
67862;DHT22;54665;51.462;6.698;2023-02-26T17:31:43;3.66;51.78
67862;DHT22;54665;51.462;6.698;2023-02-26T17:34:10;3.77;51.55
67862;DHT22;54665;51.462;6.698;2023-02-26T17:36:36;3.87;51.65
67862;DHT22;54665;51.462;6.698;2023-02-26T17:39:02;3.77;52.06
67862;DHT22;54665;51.462;6.698;2023-02-26T17:41:28;3.67;52.49
67862;DHT22;54665;51.462;6.698;2023-02-26T17:43:55;3.69;52.76
67862;DHT22;54665;51.462;6.698;2023-02-26T17:46:20;3.47;53.07
67862;DHT22;54665;51.462;6.698;2023-02-26T17:48:46;3.49;53.69
67862;DHT22;54665;51.462;6.698;2023-02-26T17:51:11;3.49;54.15
67862;DHT22;54665;51.462;6.698;2023-02-26T17:53:38;3.50;53.45
67862;DHT22;54665;51.462;6.698;2023-02-26T17:56:16;3.57;53.62
67862;DHT22;54665;51.462;6.698;2023-02-26T17:58:44;3.84;53.09
67862;DHT22;54665;51.462;6.698;2023-02-26T18:01:10;3.88;53.26
67862;DHT22;54665;51.462;6.698;2023-02-26T18:03:35;3.95;53.19
67862;DHT22;54665;51.462;6.698;2023-02-26T18:06:02;4.12;52.99
67862;DHT22;54665;51.462;6.698;2023-02-26T18:08:32;4.18;53.08
67862;DHT22;54665;51.462;6.698;2023-02-26T18:11:02;4.21;53.12
67862;DHT22;54665;51.462;6.698;2023-02-26T18:13:28;4.29;52.94
67862;DHT22;54665;51.462;6.698;2023-02-26T18:15:54;4.26;52.87
67862;DHT22;54665;51.462;6.698;2023-02-26T18:18:23;4.21;53.12
67862;DHT22;54665;51.462;6.698;2023-02-26T18:20:49;4.19;53.66